sensor_id;sensor_type;location;lat;lon;timestamp;P1;durP1;ratioP1;P2;durP2;ratioP2
20699;SDS011;10511;51.232;9.420;2022-08-01T00:02:15;0.60;;;0.60;;
20699;SDS011;10511;51.232;9.420;2022-08-01T00:04:43;0.70;;;0.70;;
20699;SDS011;10511;51.232;9.420;2022-08-01T00:07:10;0.70;;;0.70;;
20699;SDS011;10511;51.232;9.420;2022-08-01T00:09:37;0.70;;;0.70;;
20699;SDS011;10511;51.232;9.420;2022-08-01T00:12:04;0.70;;;0.70;;
20699;SDS011;10511;51.232;9.420;2022-08-01T00:14:31;0.70;;;0.70;;
20699;SDS011;10511;51.232;9.420;2022-08-01T00:16:58;0.70;;;0.70;;
20699;SDS011;10511;51.232;9.420;2022-08-01T00:19:25;0.70;;;0.70;;
20699;SDS011;10511;51.232;9.420;2022-08-01T00:21:53;0.70;;;0.70;;
20699;SDS011;10511;51.232;9.420;2022-08-01T00:24:20;0.70;;;0.70;;
20699;SDS011;10511;51.232;9.420;2022-08-01T00:26:47;0.60;;;0.60;;
20699;SDS011;10511;51.232;9.420;2022-08-01T00:29:14;0.80;;;0.80;;
20699;SDS011;10511;51.232;9.420;2022-08-01T00:31:41;0.70;;;0.70;;
20699;SDS011;10511;51.232;9.420;2022-08-01T00:34:08;0.70;;;0.70;;
20699;SDS011;10511;51.232;9.420;2022-08-01T00:36:34;0.70;;;0.70;;
20699;SDS011;10511;51.232;9.420;2022-08-01T00:39:03;0.70;;;0.70;;
20699;SDS011;10511;51.232;9.420;2022-08-01T00:41:30;0.60;;;0.60;;
20699;SDS011;10511;51.232;9.420;2022-08-01T00:43:57;0.70;;;0.70;;
20699;SDS011;10511;51.232;9.420;2022-08-01T00:46:23;0.60;;;0.60;;
20699;SDS011;10511;51.232;9.420;2022-08-01T00:48:50;0.60;;;0.60;;
20699;SDS011;10511;51.232;9.420;2022-08-01T00:51:18;0.70;;;0.70;;
20699;SDS011;10511;51.232;9.420;2022-08-01T00:53:45;0.70;;;0.70;;
20699;SDS011;10511;51.232;9.420;2022-08-01T00:56:13;0.70;;;0.70;;
20699;SDS011;10511;51.232;9.420;2022-08-01T00:58:40;0.60;;;0.60;;
20699;SDS011;10511;51.232;9.420;2022-08-01T01:01:07;0.70;;;0.70;;
20699;SDS011;10511;51.232;9.420;2022-08-01T01:03:34;0.70;;;0.70;;
20699;SDS011;10511;51.232;9.420;2022-08-01T01:06:05;0.70;;;0.70;;
20699;SDS011;10511;51.232;9.420;2022-08-01T01:08:39;0.73;;;0.73;;
20699;SDS011;10511;51.232;9.420;2022-08-01T01:11:16;0.70;;;0.70;;
20699;SDS011;10511;51.232;9.420;2022-08-01T01:13:49;0.70;;;0.70;;
20699;SDS011;10511;51.232;9.420;2022-08-01T01:16:22;0.77;;;0.77;;
20699;SDS011;10511;51.232;9.420;2022-08-01T01:18:51;0.73;;;0.73;;
20699;SDS011;10511;51.232;9.420;2022-08-01T01:21:38;0.70;;;0.70;;
20699;SDS011;10511;51.232;9.420;2022-08-01T01:24:17;0.70;;;0.70;;
20699;SDS011;10511;51.232;9.420;2022-08-01T01:26:52;0.70;;;0.70;;
20699;SDS011;10511;51.232;9.420;2022-08-01T01:29:27;0.70;;;0.70;;
20699;SDS011;10511;51.232;9.420;2022-08-01T01:31:59;0.70;;;0.70;;
20699;SDS011;10511;51.232;9.420;2022-08-01T01:34:31;0.70;;;0.70;;
20699;SDS011;10511;51.232;9.420;2022-08-01T01:37:02;0.80;;;0.80;;
20699;SDS011;10511;51.232;9.420;2022-08-01T01:39:35;0.70;;;0.70;;
20699;SDS011;10511;51.232;9.420;2022-08-01T01:42:02;0.70;;;0.70;;
20699;SDS011;10511;51.232;9.420;2022-08-01T01:44:32;0.70;;;0.70;;
20699;SDS011;10511;51.232;9.420;2022-08-01T01:47:00;0.70;;;0.70;;
20699;SDS011;10511;51.232;9.420;2022-08-01T01:49:29;0.80;;;0.80;;
20699;SDS011;10511;51.232;9.420;2022-08-01T01:51:58;0.70;;;0.70;;
20699;SDS011;10511;51.232;9.420;2022-08-01T01:54:28;0.70;;;0.70;;
20699;SDS011;10511;51.232;9.420;2022-08-01T01:56:58;0.70;;;0.70;;
20699;SDS011;10511;51.232;9.420;2022-08-01T01:59:27;0.70;;;0.70;;
20699;SDS011;10511;51.232;9.420;2022-08-01T02:01:59;0.60;;;0.60;;
20699;SDS011;10511;51.232;9.420;2022-08-01T02:04:28;0.60;;;0.60;;
20699;SDS011;10511;51.232;9.420;2022-08-01T02:06:57;0.70;;;0.70;;
20699;SDS011;10511;51.232;9.420;2022-08-01T02:09:26;0.80;;;0.80;;
20699;SDS011;10511;51.232;9.420;2022-08-01T02:11:54;0.70;;;0.70;;
20699;SDS011;10511;51.232;9.420;2022-08-01T02:14:24;0.70;;;0.70;;
20699;SDS011;10511;51.232;9.420;2022-08-01T02:16:52;0.70;;;0.70;;
20699;SDS011;10511;51.232;9.420;2022-08-01T02:19:25;0.70;;;0.70;;
20699;SDS011;10511;51.232;9.420;2022-08-01T02:21:55;0.60;;;0.60;;
20699;SDS011;10511;51.232;9.420;2022-08-01T02:24:27;0.70;;;0.70;;
20699;SDS011;10511;51.232;9.420;2022-08-01T02:26:58;0.70;;;0.70;;
20699;SDS011;10511;51.232;9.420;2022-08-01T02:29:32;0.70;;;0.70;;
20699;SDS011;10511;51.232;9.420;2022-08-01T02:32:08;0.60;;;0.60;;
20699;SDS011;10511;51.232;9.420;2022-08-01T02:34:40;0.60;;;0.60;;
20699;SDS011;10511;51.232;9.420;2022-08-01T02:37:09;0.60;;;0.60;;
20699;SDS011;10511;51.232;9.420;2022-08-01T02:39:36;0.70;;;0.70;;
20699;SDS011;10511;51.232;9.420;2022-08-01T02:42:05;0.70;;;0.70;;
20699;SDS011;10511;51.232;9.420;2022-08-01T02:44:35;0.60;;;0.60;;
20699;SDS011;10511;51.232;9.420;2022-08-01T02:47:04;0.60;;;0.60;;
20699;SDS011;10511;51.232;9.420;2022-08-01T02:49:31;0.67;;;0.67;;
20699;SDS011;10511;51.232;9.420;2022-08-01T02:52:04;0.60;;;0.60;;
20699;SDS011;10511;51.232;9.420;2022-08-01T02:54:34;0.60;;;0.60;;
20699;SDS011;10511;51.232;9.420;2022-08-01T02:57:03;0.63;;;0.63;;
20699;SDS011;10511;51.232;9.420;2022-08-01T02:59:32;0.60;;;0.60;;
20699;SDS011;10511;51.232;9.420;2022-08-01T03:02:02;0.60;;;0.60;;
20699;SDS011;10511;51.232;9.420;2022-08-01T03:04:30;0.60;;;0.60;;
20699;SDS011;10511;51.232;9.420;2022-08-01T03:07:00;0.60;;;0.60;;
20699;SDS011;10511;51.232;9.420;2022-08-01T03:09:32;0.60;;;0.60;;
20699;SDS011;10511;51.232;9.420;2022-08-01T03:12:04;0.70;;;0.70;;
20699;SDS011;10511;51.232;9.420;2022-08-01T03:14:33;0.60;;;0.60;;
20699;SDS011;10511;51.232;9.420;2022-08-01T03:17:04;0.60;;;0.60;;
20699;SDS011;10511;51.232;9.420;2022-08-01T03:19:33;0.80;;;0.80;;
20699;SDS011;10511;51.232;9.420;2022-08-01T03:22:02;0.60;;;0.60;;
20699;SDS011;10511;51.232;9.420;2022-08-01T03:24:34;0.60;;;0.60;;
20699;SDS011;10511;51.232;9.420;2022-08-01T03:27:04;0.67;;;0.67;;
20699;SDS011;10511;51.232;9.420;2022-08-01T03:29:33;0.60;;;0.60;;
20699;SDS011;10511;51.232;9.420;2022-08-01T03:32:02;0.60;;;0.60;;
20699;SDS011;10511;51.232;9.420;2022-08-01T03:34:30;0.60;;;0.60;;
20699;SDS011;10511;51.232;9.420;2022-08-01T03:36:59;0.60;;;0.60;;
20699;SDS011;10511;51.232;9.420;2022-08-01T03:39:30;0.60;;;0.60;;
20699;SDS011;10511;51.232;9.420;2022-08-01T03:42:03;0.60;;;0.60;;
20699;SDS011;10511;51.232;9.420;2022-08-01T03:44:35;0.70;;;0.70;;
20699;SDS011;10511;51.232;9.420;2022-08-01T03:47:05;0.70;;;0.70;;
20699;SDS011;10511;51.232;9.420;2022-08-01T03:49:35;0.67;;;0.67;;
20699;SDS011;10511;51.232;9.420;2022-08-01T03:52:07;0.70;;;0.70;;
20699;SDS011;10511;51.232;9.420;2022-08-01T03:54:35;0.80;;;0.80;;
20699;SDS011;10511;51.232;9.420;2022-08-01T03:57:07;0.60;;;0.60;;
20699;SDS011;10511;51.232;9.420;2022-08-01T03:59:36;0.60;;;0.60;;
20699;SDS011;10511;51.232;9.420;2022-08-01T04:02:04;0.70;;;0.70;;
20699;SDS011;10511;51.232;9.420;2022-08-01T04:04:32;0.63;;;0.63;;
20699;SDS011;10511;51.232;9.420;2022-08-01T04:06:59;0.80;;;0.80;;
20699;SDS011;10511;51.232;9.420;2022-08-01T04:09:29;0.60;;;0.60;;
20699;SDS011;10511;51.232;9.420;2022-08-01T04:11:57;0.60;;;0.60;;
20699;SDS011;10511;51.232;9.420;2022-08-01T04:14:26;0.60;;;0.60;;
20699;SDS011;10511;51.232;9.420;2022-08-01T04:16:54;0.60;;;0.60;;
20699;SDS011;10511;51.232;9.420;2022-08-01T04:19:21;0.70;;;0.70;;
20699;SDS011;10511;51.232;9.420;2022-08-01T04:21:48;0.60;;;0.60;;
20699;SDS011;10511;51.232;9.420;2022-08-01T04:24:17;0.60;;;0.60;;
20699;SDS011;10511;51.232;9.420;2022-08-01T04:26:46;0.60;;;0.60;;
20699;SDS011;10511;51.232;9.420;2022-08-01T04:29:14;0.60;;;0.60;;
20699;SDS011;10511;51.232;9.420;2022-08-01T04:31:43;0.63;;;0.63;;
20699;SDS011;10511;51.232;9.420;2022-08-01T04:34:13;0.60;;;0.60;;
20699;SDS011;10511;51.232;9.420;2022-08-01T04:36:42;0.70;;;0.70;;
20699;SDS011;10511;51.232;9.420;2022-08-01T04:39:11;0.60;;;0.60;;
20699;SDS011;10511;51.232;9.420;2022-08-01T04:41:39;0.70;;;0.70;;
20699;SDS011;10511;51.232;9.420;2022-08-01T04:44:07;0.60;;;0.60;;
20699;SDS011;10511;51.232;9.420;2022-08-01T04:46:34;0.70;;;0.70;;
20699;SDS011;10511;51.232;9.420;2022-08-01T04:49:04;0.60;;;0.60;;
20699;SDS011;10511;51.232;9.420;2022-08-01T04:51:32;0.60;;;0.60;;
20699;SDS011;10511;51.232;9.420;2022-08-01T04:53:59;0.70;;;0.70;;
20699;SDS011;10511;51.232;9.420;2022-08-01T04:56:26;0.70;;;0.70;;
20699;SDS011;10511;51.232;9.420;2022-08-01T04:58:53;0.60;;;0.60;;
20699;SDS011;10511;51.232;9.420;2022-08-01T05:01:34;0.60;;;0.60;;
20699;SDS011;10511;51.232;9.420;2022-08-01T05:04:01;0.60;;;0.60;;
20699;SDS011;10511;51.232;9.420;2022-08-01T05:06:29;0.80;;;0.80;;
20699;SDS011;10511;51.232;9.420;2022-08-01T05:08:56;0.70;;;0.70;;
20699;SDS011;10511;51.232;9.420;2022-08-01T05:11:23;0.70;;;0.70;;
20699;SDS011;10511;51.232;9.420;2022-08-01T05:13:50;0.70;;;0.70;;
20699;SDS011;10511;51.232;9.420;2022-08-01T05:16:17;0.60;;;0.60;;
20699;SDS011;10511;51.232;9.420;2022-08-01T05:18:44;0.70;;;0.70;;
20699;SDS011;10511;51.232;9.420;2022-08-01T05:21:11;0.70;;;0.70;;
20699;SDS011;10511;51.232;9.420;2022-08-01T05:23:39;0.70;;;0.70;;
20699;SDS011;10511;51.232;9.420;2022-08-01T05:26:07;0.70;;;0.70;;
20699;SDS011;10511;51.232;9.420;2022-08-01T05:28:35;0.70;;;0.70;;
20699;SDS011;10511;51.232;9.420;2022-08-01T05:31:02;0.70;;;0.70;;
20699;SDS011;10511;51.232;9.420;2022-08-01T05:33:29;0.70;;;0.70;;
20699;SDS011;10511;51.232;9.420;2022-08-01T05:35:56;0.80;;;0.80;;
20699;SDS011;10511;51.232;9.420;2022-08-01T05:38:23;0.73;;;0.73;;
20699;SDS011;10511;51.232;9.420;2022-08-01T05:40:52;0.70;;;0.70;;
20699;SDS011;10511;51.232;9.420;2022-08-01T05:43:19;0.70;;;0.70;;
20699;SDS011;10511;51.232;9.420;2022-08-01T05:45:46;0.80;;;0.80;;
20699;SDS011;10511;51.232;9.420;2022-08-01T05:48:13;0.70;;;0.70;;
20699;SDS011;10511;51.232;9.420;2022-08-01T05:50:40;0.70;;;0.70;;
20699;SDS011;10511;51.232;9.420;2022-08-01T05:53:07;0.70;;;0.70;;
20699;SDS011;10511;51.232;9.420;2022-08-01T05:55:34;0.70;;;0.70;;
20699;SDS011;10511;51.232;9.420;2022-08-01T05:58:02;0.70;;;0.70;;
20699;SDS011;10511;51.232;9.420;2022-08-01T06:00:29;0.70;;;0.70;;
20699;SDS011;10511;51.232;9.420;2022-08-01T06:02:56;0.70;;;0.70;;
20699;SDS011;10511;51.232;9.420;2022-08-01T06:05:23;0.70;;;0.70;;
20699;SDS011;10511;51.232;9.420;2022-08-01T06:07:50;0.70;;;0.70;;
20699;SDS011;10511;51.232;9.420;2022-08-01T06:10:17;0.70;;;0.70;;
20699;SDS011;10511;51.232;9.420;2022-08-01T06:12:44;0.77;;;0.77;;
20699;SDS011;10511;51.232;9.420;2022-08-01T06:15:12;0.70;;;0.70;;
20699;SDS011;10511;51.232;9.420;2022-08-01T06:17:39;0.70;;;0.70;;
20699;SDS011;10511;51.232;9.420;2022-08-01T06:20:07;0.70;;;0.70;;
20699;SDS011;10511;51.232;9.420;2022-08-01T06:22:35;0.70;;;0.70;;
20699;SDS011;10511;51.232;9.420;2022-08-01T06:25:02;0.70;;;0.70;;
20699;SDS011;10511;51.232;9.420;2022-08-01T06:27:30;0.70;;;0.70;;
20699;SDS011;10511;51.232;9.420;2022-08-01T06:29:59;0.70;;;0.70;;
20699;SDS011;10511;51.232;9.420;2022-08-01T06:32:28;0.70;;;0.70;;
20699;SDS011;10511;51.232;9.420;2022-08-01T06:34:56;0.70;;;0.70;;
20699;SDS011;10511;51.232;9.420;2022-08-01T06:37:23;0.70;;;0.70;;
20699;SDS011;10511;51.232;9.420;2022-08-01T06:39:49;0.70;;;0.70;;
20699;SDS011;10511;51.232;9.420;2022-08-01T06:42:17;0.67;;;0.67;;
20699;SDS011;10511;51.232;9.420;2022-08-01T06:44:44;0.70;;;0.70;;
20699;SDS011;10511;51.232;9.420;2022-08-01T06:47:11;0.73;;;0.73;;
20699;SDS011;10511;51.232;9.420;2022-08-01T06:49:39;0.60;;;0.60;;
20699;SDS011;10511;51.232;9.420;2022-08-01T06:52:06;0.70;;;0.70;;
20699;SDS011;10511;51.232;9.420;2022-08-01T06:54:33;0.70;;;0.70;;
20699;SDS011;10511;51.232;9.420;2022-08-01T06:57:00;0.60;;;0.60;;
20699;SDS011;10511;51.232;9.420;2022-08-01T06:59:30;0.70;;;0.70;;
20699;SDS011;10511;51.232;9.420;2022-08-01T07:01:57;0.80;;;0.80;;
20699;SDS011;10511;51.232;9.420;2022-08-01T07:04:25;0.70;;;0.70;;
20699;SDS011;10511;51.232;9.420;2022-08-01T07:06:54;0.70;;;0.70;;
20699;SDS011;10511;51.232;9.420;2022-08-01T07:09:21;0.70;;;0.70;;
20699;SDS011;10511;51.232;9.420;2022-08-01T07:11:48;0.70;;;0.70;;
20699;SDS011;10511;51.232;9.420;2022-08-01T07:14:15;0.80;;;0.80;;
20699;SDS011;10511;51.232;9.420;2022-08-01T07:16:42;0.70;;;0.70;;
20699;SDS011;10511;51.232;9.420;2022-08-01T07:19:09;0.70;;;0.70;;
20699;SDS011;10511;51.232;9.420;2022-08-01T07:21:36;0.60;;;0.60;;
20699;SDS011;10511;51.232;9.420;2022-08-01T07:24:05;0.70;;;0.70;;
20699;SDS011;10511;51.232;9.420;2022-08-01T07:26:32;0.70;;;0.70;;
20699;SDS011;10511;51.232;9.420;2022-08-01T07:28:59;0.60;;;0.60;;
20699;SDS011;10511;51.232;9.420;2022-08-01T07:31:26;0.70;;;0.70;;
20699;SDS011;10511;51.232;9.420;2022-08-01T07:33:53;0.60;;;0.60;;
20699;SDS011;10511;51.232;9.420;2022-08-01T07:36:20;0.70;;;0.70;;
20699;SDS011;10511;51.232;9.420;2022-08-01T07:38:47;0.70;;;0.70;;
20699;SDS011;10511;51.232;9.420;2022-08-01T07:41:16;0.60;;;0.60;;
20699;SDS011;10511;51.232;9.420;2022-08-01T07:43:43;0.60;;;0.60;;
20699;SDS011;10511;51.232;9.420;2022-08-01T07:46:10;0.67;;;0.67;;
20699;SDS011;10511;51.232;9.420;2022-08-01T07:48:36;0.67;;;0.67;;
20699;SDS011;10511;51.232;9.420;2022-08-01T07:51:03;0.70;;;0.70;;
20699;SDS011;10511;51.232;9.420;2022-08-01T07:53:30;0.60;;;0.60;;
20699;SDS011;10511;51.232;9.420;2022-08-01T07:55:57;0.60;;;0.60;;
20699;SDS011;10511;51.232;9.420;2022-08-01T07:58:26;0.60;;;0.60;;
20699;SDS011;10511;51.232;9.420;2022-08-01T08:00:53;0.70;;;0.70;;
20699;SDS011;10511;51.232;9.420;2022-08-01T08:03:20;0.60;;;0.60;;
20699;SDS011;10511;51.232;9.420;2022-08-01T08:05:47;0.70;;;0.70;;
20699;SDS011;10511;51.232;9.420;2022-08-01T08:08:14;0.60;;;0.60;;
20699;SDS011;10511;51.232;9.420;2022-08-01T08:10:42;0.70;;;0.70;;
20699;SDS011;10511;51.232;9.420;2022-08-01T08:13:09;0.70;;;0.70;;
20699;SDS011;10511;51.232;9.420;2022-08-01T08:15:38;0.60;;;0.60;;
20699;SDS011;10511;51.232;9.420;2022-08-01T08:18:05;0.70;;;0.70;;
20699;SDS011;10511;51.232;9.420;2022-08-01T08:20:32;0.70;;;0.70;;
20699;SDS011;10511;51.232;9.420;2022-08-01T08:23:00;0.60;;;0.60;;
20699;SDS011;10511;51.232;9.420;2022-08-01T08:25:47;0.70;;;0.70;;
20699;SDS011;10511;51.232;9.420;2022-08-01T08:28:14;0.60;;;0.60;;
20699;SDS011;10511;51.232;9.420;2022-08-01T08:30:42;0.70;;;0.70;;
20699;SDS011;10511;51.232;9.420;2022-08-01T08:33:09;0.70;;;0.70;;
20699;SDS011;10511;51.232;9.420;2022-08-01T08:35:36;0.70;;;0.70;;
20699;SDS011;10511;51.232;9.420;2022-08-01T08:38:06;0.80;;;0.80;;
20699;SDS011;10511;51.232;9.420;2022-08-01T08:40:34;0.70;;;0.70;;
20699;SDS011;10511;51.232;9.420;2022-08-01T08:43:04;0.70;;;0.70;;
20699;SDS011;10511;51.232;9.420;2022-08-01T08:45:31;0.60;;;0.60;;
20699;SDS011;10511;51.232;9.420;2022-08-01T08:48:00;0.70;;;0.70;;
20699;SDS011;10511;51.232;9.420;2022-08-01T08:50:27;0.60;;;0.60;;
20699;SDS011;10511;51.232;9.420;2022-08-01T08:52:55;0.60;;;0.60;;
20699;SDS011;10511;51.232;9.420;2022-08-01T08:55:23;0.70;;;0.70;;
20699;SDS011;10511;51.232;9.420;2022-08-01T08:57:50;0.60;;;0.60;;
20699;SDS011;10511;51.232;9.420;2022-08-01T09:00:18;0.60;;;0.60;;
20699;SDS011;10511;51.232;9.420;2022-08-01T09:02:47;0.60;;;0.60;;
20699;SDS011;10511;51.232;9.420;2022-08-01T09:05:16;0.60;;;0.60;;
20699;SDS011;10511;51.232;9.420;2022-08-01T09:07:50;0.60;;;0.60;;
20699;SDS011;10511;51.232;9.420;2022-08-01T09:10:20;0.60;;;0.60;;
20699;SDS011;10511;51.232;9.420;2022-08-01T09:13:06;0.60;;;0.60;;
20699;SDS011;10511;51.232;9.420;2022-08-01T09:15:39;0.60;;;0.60;;
20699;SDS011;10511;51.232;9.420;2022-08-01T09:18:07;0.60;;;0.60;;
20699;SDS011;10511;51.232;9.420;2022-08-01T09:20:36;0.60;;;0.60;;
20699;SDS011;10511;51.232;9.420;2022-08-01T09:23:02;0.60;;;0.60;;
20699;SDS011;10511;51.232;9.420;2022-08-01T09:25:30;0.70;;;0.70;;
20699;SDS011;10511;51.232;9.420;2022-08-01T09:28:26;0.63;;;0.63;;
20699;SDS011;10511;51.232;9.420;2022-08-01T09:30:55;0.70;;;0.70;;
20699;SDS011;10511;51.232;9.420;2022-08-01T09:33:22;0.60;;;0.60;;
20699;SDS011;10511;51.232;9.420;2022-08-01T09:35:54;0.70;;;0.70;;
20699;SDS011;10511;51.232;9.420;2022-08-01T09:38:23;0.60;;;0.60;;
20699;SDS011;10511;51.232;9.420;2022-08-01T09:40:53;0.60;;;0.60;;
20699;SDS011;10511;51.232;9.420;2022-08-01T09:43:22;0.60;;;0.60;;
20699;SDS011;10511;51.232;9.420;2022-08-01T09:45:51;0.60;;;0.60;;
20699;SDS011;10511;51.232;9.420;2022-08-01T09:48:18;0.60;;;0.60;;
20699;SDS011;10511;51.232;9.420;2022-08-01T09:50:46;0.60;;;0.60;;
20699;SDS011;10511;51.232;9.420;2022-08-01T09:53:16;0.60;;;0.60;;
20699;SDS011;10511;51.232;9.420;2022-08-01T09:55:44;0.60;;;0.60;;
20699;SDS011;10511;51.232;9.420;2022-08-01T09:58:11;0.70;;;0.70;;
20699;SDS011;10511;51.232;9.420;2022-08-01T10:00:39;0.60;;;0.60;;
20699;SDS011;10511;51.232;9.420;2022-08-01T10:03:18;0.60;;;0.60;;
20699;SDS011;10511;51.232;9.420;2022-08-01T10:05:46;0.60;;;0.60;;
20699;SDS011;10511;51.232;9.420;2022-08-01T10:08:13;0.60;;;0.60;;
20699;SDS011;10511;51.232;9.420;2022-08-01T10:10:42;0.60;;;0.60;;
20699;SDS011;10511;51.232;9.420;2022-08-01T10:13:30;0.60;;;0.60;;
20699;SDS011;10511;51.232;9.420;2022-08-01T10:15:58;0.70;;;0.70;;
20699;SDS011;10511;51.232;9.420;2022-08-01T10:18:26;0.60;;;0.60;;
20699;SDS011;10511;51.232;9.420;2022-08-01T10:20:56;0.60;;;0.60;;
20699;SDS011;10511;51.232;9.420;2022-08-01T10:23:26;0.60;;;0.60;;
20699;SDS011;10511;51.232;9.420;2022-08-01T10:25:57;0.63;;;0.63;;
20699;SDS011;10511;51.232;9.420;2022-08-01T10:28:26;0.60;;;0.60;;
20699;SDS011;10511;51.232;9.420;2022-08-01T10:30:57;0.70;;;0.70;;
20699;SDS011;10511;51.232;9.420;2022-08-01T10:33:25;0.70;;;0.70;;
20699;SDS011;10511;51.232;9.420;2022-08-01T10:35:54;0.70;;;0.70;;
20699;SDS011;10511;51.232;9.420;2022-08-01T10:38:23;0.60;;;0.60;;
20699;SDS011;10511;51.232;9.420;2022-08-01T10:40:52;0.60;;;0.60;;
20699;SDS011;10511;51.232;9.420;2022-08-01T10:43:21;0.60;;;0.60;;
20699;SDS011;10511;51.232;9.420;2022-08-01T10:45:47;0.60;;;0.60;;
20699;SDS011;10511;51.232;9.420;2022-08-01T10:48:18;0.60;;;0.60;;
20699;SDS011;10511;51.232;9.420;2022-08-01T10:50:48;0.60;;;0.60;;
20699;SDS011;10511;51.232;9.420;2022-08-01T10:53:18;0.60;;;0.60;;
20699;SDS011;10511;51.232;9.420;2022-08-01T10:55:47;0.60;;;0.60;;
20699;SDS011;10511;51.232;9.420;2022-08-01T10:58:21;0.60;;;0.60;;
20699;SDS011;10511;51.232;9.420;2022-08-01T11:00:56;0.60;;;0.60;;
20699;SDS011;10511;51.232;9.420;2022-08-01T11:06:35;0.60;;;0.60;;
20699;SDS011;10511;51.232;9.420;2022-08-01T11:09:15;0.60;;;0.60;;
20699;SDS011;10511;51.232;9.420;2022-08-01T11:11:56;0.70;;;0.70;;
20699;SDS011;10511;51.232;9.420;2022-08-01T11:14:26;0.57;;;0.57;;
20699;SDS011;10511;51.232;9.420;2022-08-01T11:16:54;0.60;;;0.60;;
20699;SDS011;10511;51.232;9.420;2022-08-01T11:19:21;0.60;;;0.60;;
20699;SDS011;10511;51.232;9.420;2022-08-01T11:21:58;0.60;;;0.60;;
20699;SDS011;10511;51.232;9.420;2022-08-01T11:27:23;0.50;;;0.50;;
20699;SDS011;10511;51.232;9.420;2022-08-01T11:32:52;0.60;;;0.60;;
20699;SDS011;10511;51.232;9.420;2022-08-01T11:35:21;0.60;;;0.60;;
20699;SDS011;10511;51.232;9.420;2022-08-01T11:37:52;0.60;;;0.60;;
20699;SDS011;10511;51.232;9.420;2022-08-01T11:40:21;0.50;;;0.50;;
20699;SDS011;10511;51.232;9.420;2022-08-01T11:42:50;0.50;;;0.50;;
20699;SDS011;10511;51.232;9.420;2022-08-01T11:45:48;0.57;;;0.57;;
20699;SDS011;10511;51.232;9.420;2022-08-01T11:48:18;0.50;;;0.50;;
20699;SDS011;10511;51.232;9.420;2022-08-01T11:50:46;0.50;;;0.50;;
20699;SDS011;10511;51.232;9.420;2022-08-01T11:53:13;0.50;;;0.50;;
20699;SDS011;10511;51.232;9.420;2022-08-01T11:55:43;0.50;;;0.50;;
20699;SDS011;10511;51.232;9.420;2022-08-01T11:58:12;0.50;;;0.50;;
20699;SDS011;10511;51.232;9.420;2022-08-01T12:00:39;0.53;;;0.53;;
20699;SDS011;10511;51.232;9.420;2022-08-01T12:03:07;0.60;;;0.60;;
20699;SDS011;10511;51.232;9.420;2022-08-01T12:05:35;0.60;;;0.60;;
20699;SDS011;10511;51.232;9.420;2022-08-01T12:08:03;0.50;;;0.50;;
20699;SDS011;10511;51.232;9.420;2022-08-01T12:10:31;0.50;;;0.50;;
20699;SDS011;10511;51.232;9.420;2022-08-01T12:13:02;0.50;;;0.50;;
20699;SDS011;10511;51.232;9.420;2022-08-01T12:15:32;0.50;;;0.50;;
20699;SDS011;10511;51.232;9.420;2022-08-01T12:18:01;0.60;;;0.60;;
20699;SDS011;10511;51.232;9.420;2022-08-01T12:20:31;0.50;;;0.50;;
20699;SDS011;10511;51.232;9.420;2022-08-01T12:23:00;0.50;;;0.50;;
20699;SDS011;10511;51.232;9.420;2022-08-01T12:25:28;0.50;;;0.50;;
20699;SDS011;10511;51.232;9.420;2022-08-01T12:27:58;0.50;;;0.50;;
20699;SDS011;10511;51.232;9.420;2022-08-01T12:30:26;0.50;;;0.50;;
20699;SDS011;10511;51.232;9.420;2022-08-01T12:32:56;0.60;;;0.60;;
20699;SDS011;10511;51.232;9.420;2022-08-01T12:35:23;0.60;;;0.60;;
20699;SDS011;10511;51.232;9.420;2022-08-01T12:37:53;0.50;;;0.50;;
20699;SDS011;10511;51.232;9.420;2022-08-01T12:40:22;0.50;;;0.50;;
20699;SDS011;10511;51.232;9.420;2022-08-01T12:42:50;0.60;;;0.60;;
20699;SDS011;10511;51.232;9.420;2022-08-01T12:45:19;0.60;;;0.60;;
20699;SDS011;10511;51.232;9.420;2022-08-01T12:47:47;0.60;;;0.60;;
20699;SDS011;10511;51.232;9.420;2022-08-01T12:50:18;0.60;;;0.60;;
20699;SDS011;10511;51.232;9.420;2022-08-01T12:52:46;0.70;;;0.70;;
20699;SDS011;10511;51.232;9.420;2022-08-01T12:55:15;0.60;;;0.60;;
20699;SDS011;10511;51.232;9.420;2022-08-01T12:57:43;0.60;;;0.60;;
20699;SDS011;10511;51.232;9.420;2022-08-01T13:00:19;0.60;;;0.60;;
20699;SDS011;10511;51.232;9.420;2022-08-01T13:02:48;0.60;;;0.60;;
20699;SDS011;10511;51.232;9.420;2022-08-01T13:05:17;0.60;;;0.60;;
20699;SDS011;10511;51.232;9.420;2022-08-01T13:07:48;0.60;;;0.60;;
20699;SDS011;10511;51.232;9.420;2022-08-01T13:10:25;0.60;;;0.60;;
20699;SDS011;10511;51.232;9.420;2022-08-01T13:12:56;0.60;;;0.60;;
20699;SDS011;10511;51.232;9.420;2022-08-01T13:15:28;0.50;;;0.50;;
20699;SDS011;10511;51.232;9.420;2022-08-01T13:17:57;0.70;;;0.70;;
20699;SDS011;10511;51.232;9.420;2022-08-01T13:20:26;0.60;;;0.60;;
20699;SDS011;10511;51.232;9.420;2022-08-01T13:23:09;0.57;;;0.57;;
20699;SDS011;10511;51.232;9.420;2022-08-01T13:25:47;0.60;;;0.60;;
20699;SDS011;10511;51.232;9.420;2022-08-01T13:28:16;0.50;;;0.50;;
20699;SDS011;10511;51.232;9.420;2022-08-01T13:30:51;0.60;;;0.60;;
20699;SDS011;10511;51.232;9.420;2022-08-01T13:33:18;0.60;;;0.60;;
20699;SDS011;10511;51.232;9.420;2022-08-01T13:35:45;0.53;;;0.53;;
20699;SDS011;10511;51.232;9.420;2022-08-01T13:38:12;0.50;;;0.50;;
20699;SDS011;10511;51.232;9.420;2022-08-01T13:40:39;0.50;;;0.50;;
20699;SDS011;10511;51.232;9.420;2022-08-01T13:43:08;0.50;;;0.50;;
20699;SDS011;10511;51.232;9.420;2022-08-01T13:45:35;0.50;;;0.50;;
20699;SDS011;10511;51.232;9.420;2022-08-01T13:48:04;0.50;;;0.50;;
20699;SDS011;10511;51.232;9.420;2022-08-01T13:50:31;0.60;;;0.60;;
20699;SDS011;10511;51.232;9.420;2022-08-01T13:52:58;0.50;;;0.50;;
20699;SDS011;10511;51.232;9.420;2022-08-01T13:55:25;0.50;;;0.50;;
20699;SDS011;10511;51.232;9.420;2022-08-01T13:57:52;0.50;;;0.50;;
20699;SDS011;10511;51.232;9.420;2022-08-01T14:00:20;0.60;;;0.60;;
20699;SDS011;10511;51.232;9.420;2022-08-01T14:02:47;0.50;;;0.50;;
20699;SDS011;10511;51.232;9.420;2022-08-01T14:05:14;0.50;;;0.50;;
20699;SDS011;10511;51.232;9.420;2022-08-01T14:07:41;0.50;;;0.50;;
20699;SDS011;10511;51.232;9.420;2022-08-01T14:10:09;0.50;;;0.50;;
20699;SDS011;10511;51.232;9.420;2022-08-01T14:12:36;0.57;;;0.57;;
20699;SDS011;10511;51.232;9.420;2022-08-01T14:15:03;0.60;;;0.60;;
20699;SDS011;10511;51.232;9.420;2022-08-01T14:17:33;0.50;;;0.50;;
20699;SDS011;10511;51.232;9.420;2022-08-01T14:20:00;0.53;;;0.53;;
20699;SDS011;10511;51.232;9.420;2022-08-01T14:22:27;0.50;;;0.50;;
20699;SDS011;10511;51.232;9.420;2022-08-01T14:24:54;0.50;;;0.50;;
20699;SDS011;10511;51.232;9.420;2022-08-01T14:27:21;0.50;;;0.50;;
20699;SDS011;10511;51.232;9.420;2022-08-01T14:29:48;0.60;;;0.60;;
20699;SDS011;10511;51.232;9.420;2022-08-01T14:32:15;0.50;;;0.50;;
20699;SDS011;10511;51.232;9.420;2022-08-01T14:34:43;0.60;;;0.60;;
20699;SDS011;10511;51.232;9.420;2022-08-01T14:37:11;0.50;;;0.50;;
20699;SDS011;10511;51.232;9.420;2022-08-01T14:39:39;0.53;;;0.53;;
20699;SDS011;10511;51.232;9.420;2022-08-01T14:42:06;0.60;;;0.60;;
20699;SDS011;10511;51.232;9.420;2022-08-01T14:44:32;0.60;;;0.60;;
20699;SDS011;10511;51.232;9.420;2022-08-01T14:46:59;0.60;;;0.60;;
20699;SDS011;10511;51.232;9.420;2022-08-01T14:49:26;0.50;;;0.50;;
20699;SDS011;10511;51.232;9.420;2022-08-01T14:51:55;0.50;;;0.50;;
20699;SDS011;10511;51.232;9.420;2022-08-01T14:54:23;0.50;;;0.50;;
20699;SDS011;10511;51.232;9.420;2022-08-01T14:56:49;0.50;;;0.50;;
20699;SDS011;10511;51.232;9.420;2022-08-01T14:59:18;0.50;;;0.50;;
20699;SDS011;10511;51.232;9.420;2022-08-01T15:01:45;0.50;;;0.50;;
20699;SDS011;10511;51.232;9.420;2022-08-01T15:04:11;0.50;;;0.50;;
20699;SDS011;10511;51.232;9.420;2022-08-01T15:06:39;0.50;;;0.50;;
20699;SDS011;10511;51.232;9.420;2022-08-01T15:09:07;0.50;;;0.50;;